Worthington, Minnesota
Current Conditions -  °F | °C
As of 3:15 PM on Tuesday 27 Jan 2015 (Local Time) from KOTG Reporting Station
Scattered Clouds Scattered Clouds  
Wind Chill: 32°   Ceiling: Unl
Heat Index: 39°   Visibility: 10mi
Dew Point: 34°   Wind: 12mph
Humidity: 81%   Direction: 140°SE
Pressure: 30.06"   Gusts: NA
Location:  43.63°N, 95.62°W
Report Text: KOTG 272115Z AUTO 14010KT 10SM SCT012 04/01 A3006 RMK AO1
Loading
Personal Weather Stations






























Interactive Weather Map New forecast layout! Learn more

10-Day Weather Forecast

Advertisements
Track Severe Weather on mobile